createdAt,value
2022-08-21T00:03:19.480Z,100.00
2022-08-21T00:10:21.911Z,100.00
2022-08-21T00:17:25.444Z,100.00
2022-08-21T00:24:27.851Z,100.00
2022-08-21T00:31:32.339Z,100.00
2022-08-21T00:38:36.195Z,100.00
2022-08-21T00:45:38.395Z,100.00
2022-08-21T00:52:40.712Z,100.00
2022-08-21T00:59:44.756Z,100.00
2022-08-21T01:06:47.112Z,100.00
2022-08-21T01:13:50.123Z,100.00
2022-08-21T01:21:11.615Z,100.00
2022-08-21T01:28:15.151Z,100.00
2022-08-21T01:35:18.222Z,100.00
2022-08-21T01:42:21.980Z,100.00
2022-08-21T01:49:24.253Z,100.00
2022-08-21T01:56:28.962Z,100.00
2022-08-21T02:03:36.119Z,100.00
2022-08-21T02:10:38.653Z,100.00
2022-08-21T02:17:41.808Z,100.00
2022-08-21T02:24:53.671Z,100.00
2022-08-21T02:31:57.120Z,100.00
2022-08-21T02:38:59.394Z,100.00
2022-08-21T02:46:03.640Z,100.00
2022-08-21T02:53:06.927Z,100.00
2022-08-21T03:00:11.766Z,100.00
2022-08-21T03:07:16.283Z,100.00
2022-08-21T03:14:18.560Z,100.00
2022-08-21T03:21:20.788Z,100.00
2022-08-21T03:28:24.414Z,100.00
2022-08-21T03:35:26.817Z,100.00
2022-08-21T03:42:29.029Z,100.00
2022-08-21T03:49:32.983Z,100.00
2022-08-21T03:56:35.218Z,100.00
2022-08-21T04:03:39.265Z,100.00
2022-08-21T04:10:42.849Z,100.00
2022-08-21T04:17:45.261Z,100.00
2022-08-21T04:24:47.477Z,100.00
2022-08-21T04:31:53.113Z,100.00
2022-08-21T04:38:55.403Z,100.00
2022-08-21T04:46:01.293Z,100.00
2022-08-21T04:53:05.124Z,100.00
2022-08-21T05:00:13.658Z,100.00
2022-08-21T05:07:41.564Z,100.00
2022-08-21T05:14:46.265Z,100.00
2022-08-21T05:21:48.974Z,100.00
2022-08-21T05:28:51.225Z,100.00
2022-08-21T05:35:56.673Z,100.00
2022-08-21T05:43:00.009Z,100.00
2022-08-21T05:50:04.746Z,100.00
2022-08-21T05:57:09.417Z,100.00
2022-08-21T06:04:11.678Z,100.00
2022-08-21T06:11:13.953Z,100.00
2022-08-21T06:18:17.529Z,100.00
2022-08-21T06:25:20.337Z,100.00
2022-08-21T06:32:22.608Z,100.00
2022-08-21T06:39:30.657Z,100.00
2022-08-21T06:46:38.213Z,100.00
2022-08-21T06:53:40.494Z,100.00
2022-08-21T07:00:45.173Z,100.00
2022-08-21T07:07:47.638Z,100.00
2022-08-21T07:14:49.875Z,100.00
2022-08-21T07:21:58.732Z,100.00
2022-08-21T07:29:00.987Z,100.00
2022-08-21T07:36:03.759Z,100.00
2022-08-21T07:43:07.377Z,100.00
2022-08-21T07:50:12.440Z,100.00
2022-08-21T07:57:14.871Z,95.56
2022-08-21T11:43:24.632Z,55.26
2022-08-21T12:08:47.302Z,54.68
2022-08-21T12:44:36.977Z,57.22
2022-08-21T12:51:43.185Z,57.02
2022-08-21T12:58:56.038Z,58.43
2022-08-21T13:05:59.011Z,58.75
2022-08-21T13:13:03.025Z,56.23
2022-08-21T13:20:25.879Z,56.74
2022-08-21T13:27:29.895Z,57.39
2022-08-21T13:34:35.605Z,56.28
2022-08-21T13:41:39.481Z,57.34
2022-08-21T13:48:42.430Z,56.46
2022-08-21T13:55:44.693Z,55.01
2022-08-21T14:02:51.750Z,55.05
2022-08-21T14:09:53.988Z,55.67
2022-08-21T14:17:00.148Z,55.92
2022-08-21T14:24:25.341Z,53.60
2022-08-21T14:31:30.486Z,53.58
2022-08-21T14:38:33.453Z,50.59
2022-08-21T14:45:37.541Z,51.00
2022-08-21T14:52:40.491Z,50.15
2022-08-21T14:59:42.751Z,51.96
2022-08-21T15:06:44.964Z,52.65
2022-08-21T15:13:47.649Z,55.13
2022-08-21T15:20:50.114Z,52.34
2022-08-21T15:27:52.305Z,53.51
2022-08-21T15:34:54.704Z,53.00
2022-08-21T15:41:57.145Z,52.49
2022-08-21T15:49:00.069Z,54.55
2022-08-21T15:56:02.561Z,54.54
2022-08-21T16:03:05.534Z,55.65
2022-08-21T16:10:08.003Z,54.91
2022-08-21T16:17:12.526Z,53.90
2022-08-21T16:24:16.752Z,55.23
2022-08-21T16:31:20.349Z,53.73
2022-08-21T16:47:52.313Z,48.91
2022-08-21T16:54:54.679Z,48.95
2022-08-21T17:01:57.174Z,49.81
2022-08-21T17:08:59.439Z,49.45
2022-08-21T17:16:01.653Z,49.86
2022-08-21T17:23:03.893Z,49.31
2022-08-21T17:30:06.620Z,48.58
2022-08-21T17:37:08.864Z,48.44
2022-08-21T17:44:14.280Z,47.34
2022-08-21T17:51:20.487Z,46.64
2022-08-21T17:58:22.727Z,45.49
2022-08-21T18:05:24.978Z,46.08
2022-08-21T18:12:27.235Z,46.10
2022-08-21T18:46:10.986Z,43.50
2022-08-21T18:53:23.937Z,44.34
2022-08-21T19:07:16.648Z,46.61
2022-08-21T19:14:19.078Z,48.39
2022-08-21T19:21:25.004Z,49.30
2022-08-21T19:28:38.776Z,49.27
2022-08-21T19:35:41.118Z,49.48
2022-08-21T19:42:43.433Z,49.30
2022-08-21T19:49:52.066Z,48.82
2022-08-21T19:56:55.376Z,49.34
2022-08-21T20:03:57.978Z,48.85
2022-08-21T20:11:04.124Z,51.16
2022-08-21T20:18:06.968Z,50.86
2022-08-21T20:25:11.356Z,50.37
2022-08-21T20:32:16.784Z,49.86
2022-08-21T20:39:19.160Z,50.35
2022-08-21T20:46:26.997Z,50.47
2022-08-21T20:53:48.806Z,50.41
2022-08-21T21:00:51.966Z,50.55
2022-08-21T21:08:09.497Z,50.85
2022-08-21T21:15:23.455Z,52.51
2022-08-21T21:22:36.937Z,52.95
2022-08-21T21:29:44.632Z,53.79
2022-08-21T21:36:56.769Z,53.83
2022-08-21T21:44:01.813Z,54.86
2022-08-21T21:51:40.325Z,55.50
2022-08-21T22:06:45.088Z,57.06
2022-08-21T22:14:06.265Z,57.96
2022-08-21T22:21:12.809Z,58.49
2022-08-21T22:28:25.435Z,59.18
2022-08-21T22:35:31.641Z,59.46
2022-08-21T22:42:34.026Z,59.45
2022-08-21T22:49:44.105Z,59.74
2022-08-21T22:56:46.441Z,61.69
2022-08-21T23:03:57.386Z,59.96
2022-08-21T23:11:02.855Z,62.00
2022-08-21T23:18:32.871Z,63.00
2022-08-21T23:25:41.361Z,61.18
2022-08-21T23:33:07.314Z,60.92
2022-08-21T23:40:27.917Z,62.33
2022-08-21T23:47:51.245Z,66.12
2022-08-21T23:54:56.363Z,68.98
